Hiram, Kentucky
Current Conditions -  °F | °C
As of 4:15 AM on Monday 24 Nov 2014 (Local Time) from KI35 Reporting Station
Overcast Overcast  
Wind Chill: 16°   Ceiling: 3200
Heat Index: 16°   Visibility: 10mi
Dew Point: 10°   Wind: 8mph
Humidity: 68%   Direction: 180°S
Pressure: 29.57"   Gusts: NA
Location:  36.9548°N, 82.9776°W
Report Text: KI35 240915Z AUTO 18007KT 130V310 10SM BKN032 OVC041 16/10 A2957 RMK AO1
Loading
Personal Weather Stations






























Interactive Weather Map New forecast layout! Learn more

10-Day Weather Forecast

Advertisements
Track Severe Weather on mobile